Time;durP1;ratioP1;P1;durP2;ratioP2;P2;SDS_P1;SDS_P2;PMS_P1;PMS_P2;Temp;Humidity;BMP_temperature;BMP_pressure;BME280_temperature;BME280_humidity;BME280_pressure;Samples;Min_cycle;Max_cycle;Signal;HPM_P1;HPM_P2
2023/04/10 00:01:34;;;;;;;9.15;5.70;;;;;;;;;;5077586;28;20111;-86
2023/04/10 00:04:01;;;;;;;8.55;5.57;;;;;;;;;;5076524;28;20032;-86
2023/04/10 00:06:27;;;;;;;9.90;5.68;;;;;;;;;;5078179;28;20033;-85
2023/04/10 00:08:52;;;;;;;8.68;5.57;;;;;;;;;;5078000;28;20037;-86
2023/04/10 00:11:18;;;;;;;10.23;5.47;;;;;;;;;;5091623;28;20044;-85
2023/04/10 00:13:43;;;;;;;8.73;5.32;;;;;;;;;;5077831;28;20092;-83
2023/04/10 00:16:10;;;;;;;8.45;5.50;;;;;;;;;;5076263;28;20482;-86
2023/04/10 00:18:35;;;;;;;8.05;5.10;;;;;;;;;;5070689;28;20056;-84
2023/04/10 00:21:02;;;;;;;8.88;5.32;;;;;;;;;;5073078;28;20082;-86
2023/04/10 00:23:30;;;;;;;10.23;5.70;;;;;;;;;;5069799;28;20032;-86
2023/04/10 00:25:56;;;;;;;8.32;5.30;;;;;;;;;;5073669;28;20098;-85
2023/04/10 00:28:22;;;;;;;9.05;5.70;;;;;;;;;;5072633;28;20493;-84
2023/04/10 00:30:47;;;;;;;9.38;5.70;;;;;;;;;;5055895;28;20128;-86
2023/04/10 00:33:13;;;;;;;8.68;5.35;;;;;;;;;;5072201;28;20033;-86
2023/04/10 00:35:38;;;;;;;8.73;5.53;;;;;;;;;;5089094;28;20036;-86
2023/04/10 00:38:04;;;;;;;8.30;5.10;;;;;;;;;;5085487;28;20029;-85
2023/04/10 00:40:30;;;;;;;8.38;5.07;;;;;;;;;;5073481;28;20028;-86
2023/04/10 00:42:56;;;;;;;9.90;5.93;;;;;;;;;;5073592;28;20486;-84
2023/04/10 00:45:21;;;;;;;9.98;5.70;;;;;;;;;;5074064;28;20068;-86
2023/04/10 00:47:47;;;;;;;11.30;7.10;;;;;;;;;;5072616;28;20040;-85
2023/04/10 00:50:13;;;;;;;10.63;6.88;;;;;;;;;;5073766;28;20422;-86
2023/04/10 00:52:39;;;;;;;11.10;7.15;;;;;;;;;;5074225;28;20036;-86
2023/04/10 00:55:05;;;;;;;9.25;6.28;;;;;;;;;;5073885;28;20043;-84
2023/04/10 00:57:32;;;;;;;10.88;6.55;;;;;;;;;;5073904;28;20047;-84
2023/04/10 00:59:57;;;;;;;10.25;6.15;;;;;;;;;;5088794;28;20050;-86
2023/04/10 01:02:23;;;;;;;9.02;5.88;;;;;;;;;;5079422;28;20040;-85
2023/04/10 01:04:49;;;;;;;15.73;9.88;;;;;;;;;;5077200;28;20032;-84
2023/04/10 01:07:50;;;;;;;19.77;11.35;;;;;;;;;;5077481;28;20092;-85
2023/04/10 01:10:24;;;;;;;10.00;6.10;;;;;;;;;;5077774;28;20044;-86
2023/04/10 01:12:54;;;;;;;47.03;23.17;;;;;;;;;;5077985;28;20155;-85
2023/04/10 01:15:24;;;;;;;10.45;6.63;;;;;;;;;;5074628;28;20047;-85
2023/04/10 01:18:11;;;;;;;9.13;5.63;;;;;;;;;;5074771;28;20089;-84
2023/04/10 01:20:38;;;;;;;10.25;5.70;;;;;;;;;;5071387;28;20033;-85
2023/04/10 01:23:40;;;;;;;11.25;6.65;;;;;;;;;;5063848;28;20043;-85
2023/04/10 01:26:09;;;;;;;20.33;13.80;;;;;;;;;;5072251;28;20107;-85
2023/04/10 01:28:59;;;;;;;12.55;7.72;;;;;;;;;;5071384;28;20032;-84
2023/04/10 01:31:37;;;;;;;10.18;6.15;;;;;;;;;;5069494;28;20035;-85
2023/04/10 01:34:06;;;;;;;9.63;5.88;;;;;;;;;;5055661;28;20044;-86
2023/04/10 01:36:36;;;;;;;10.60;6.15;;;;;;;;;;5071679;28;20036;-84
2023/04/10 01:39:04;;;;;;;9.15;6.00;;;;;;;;;;5073752;28;20025;-85
2023/04/10 01:41:31;;;;;;;10.60;6.03;;;;;;;;;;5070494;28;20059;-86
2023/04/10 01:43:58;;;;;;;9.23;5.97;;;;;;;;;;5072065;28;20024;-86
2023/04/10 01:46:27;;;;;;;10.57;6.30;;;;;;;;;;5072714;28;20036;-86
2023/04/10 01:48:54;;;;;;;9.40;6.10;;;;;;;;;;5072923;28;20036;-86
2023/04/10 01:51:21;;;;;;;9.82;6.07;;;;;;;;;;5071919;28;20033;-84
2023/04/10 01:53:49;;;;;;;11.27;5.60;;;;;;;;;;5074045;28;20180;-86
2023/04/10 01:56:20;;;;;;;10.65;5.63;;;;;;;;;;5077316;28;20085;-83
2023/04/10 01:58:46;;;;;;;10.10;5.75;;;;;;;;;;5091941;28;20056;-86
2023/04/10 02:01:18;;;;;;;8.90;6.05;;;;;;;;;;5073971;28;20036;-85
2023/04/10 02:03:44;;;;;;;9.13;5.65;;;;;;;;;;5089791;28;20483;-86
2023/04/10 02:06:17;;;;;;;9.13;5.50;;;;;;;;;;5059875;28;20047;-85
2023/04/10 02:08:55;;;;;;;9.55;5.35;;;;;;;;;;5077575;28;20505;-83
2023/04/10 02:11:32;;;;;;;8.75;5.60;;;;;;;;;;5076250;28;20941;-86
2023/04/10 02:14:06;;;;;;;8.93;5.30;;;;;;;;;;5070173;28;20567;-86
2023/04/10 02:16:32;;;;;;;9.10;5.75;;;;;;;;;;5056779;28;20058;-85
2023/04/10 02:19:00;;;;;;;10.30;6.32;;;;;;;;;;5077230;28;20032;-81
2023/04/10 02:21:26;;;;;;;12.68;7.28;;;;;;;;;;5087854;28;20111;-85
2023/04/10 02:23:52;;;;;;;10.45;6.80;;;;;;;;;;5076471;28;20055;-88
2023/04/10 02:26:17;;;;;;;11.23;6.35;;;;;;;;;;5074560;28;20033;-84
2023/04/10 02:28:43;;;;;;;11.00;6.07;;;;;;;;;;5076076;28;20498;-86
2023/04/10 02:31:08;;;;;;;9.55;6.05;;;;;;;;;;5073806;28;20048;-86
2023/04/10 02:33:34;;;;;;;8.63;5.68;;;;;;;;;;5053192;28;20036;-87
2023/04/10 02:36:00;;;;;;;9.65;5.88;;;;;;;;;;5073698;28;20028;-86
2023/04/10 02:38:27;;;;;;;9.10;5.60;;;;;;;;;;5075046;28;20033;-85
2023/04/10 02:40:53;;;;;;;8.20;5.45;;;;;;;;;;5059816;28;20072;-85
2023/04/10 02:43:18;;;;;;;14.68;8.48;;;;;;;;;;5075050;28;20033;-85
2023/04/10 02:45:45;;;;;;;10.90;6.18;;;;;;;;;;5076685;28;20119;-84
2023/04/10 02:48:17;;;;;;;9.33;5.80;;;;;;;;;;5058762;28;20371;-88
2023/04/10 02:50:49;;;;;;;8.85;5.72;;;;;;;;;;5092953;28;20520;-85
2023/04/10 02:53:15;;;;;;;9.25;5.40;;;;;;;;;;5078737;28;20033;-86
2023/04/10 02:55:41;;;;;;;8.85;5.30;;;;;;;;;;5076425;28;20070;-86
2023/04/10 02:58:06;;;;;;;9.65;5.38;;;;;;;;;;5089123;28;20036;-85
2023/04/10 03:00:32;;;;;;;9.05;5.30;;;;;;;;;;5073214;28;20029;-84
2023/04/10 03:03:17;;;;;;;;;;;;;;;;;;5079674;28;20529;-86
2023/04/10 03:05:48;;;;;;;9.00;5.40;;;;;;;;;;5076483;28;19936;-85
2023/04/10 03:08:16;;;;;;;13.68;5.53;;;;;;;;;;5072733;28;20409;-85
2023/04/10 03:10:47;;;;;;;8.57;5.30;;;;;;;;;;5077896;28;20032;-88
2023/04/10 03:13:14;;;;;;;9.25;5.78;;;;;;;;;;5079293;28;20024;-84
2023/04/10 03:15:39;;;;;;;7.78;5.38;;;;;;;;;;5053643;28;20588;-86
2023/04/10 03:18:05;;;;;;;10.68;5.65;;;;;;;;;;5076400;28;20119;-84
2023/04/10 03:20:32;;;;;;;8.80;5.30;;;;;;;;;;5078482;28;20036;-85
2023/04/10 03:23:00;;;;;;;10.88;6.05;;;;;;;;;;5078037;28;20051;-82
2023/04/10 03:25:26;;;;;;;9.32;5.43;;;;;;;;;;5059727;28;20070;-86
2023/04/10 03:27:52;;;;;;;9.02;5.63;;;;;;;;;;5055871;28;20037;-85
2023/04/10 03:30:18;;;;;;;8.80;5.53;;;;;;;;;;5074874;28;20032;-85
2023/04/10 03:32:45;;;;;;;8.40;5.40;;;;;;;;;;5072946;28;20032;-83
2023/04/10 03:35:11;;;;;;;10.15;5.93;;;;;;;;;;5074025;28;20032;-85
2023/04/10 03:37:37;;;;;;;8.85;5.70;;;;;;;;;;5071392;28;20107;-85
2023/04/10 03:40:06;;;;;;;9.98;5.95;;;;;;;;;;5084270;28;20055;-85
2023/04/10 03:42:32;;;;;;;9.93;5.70;;;;;;;;;;5087314;28;20112;-85
2023/04/10 03:45:00;;;;;;;9.68;5.78;;;;;;;;;;5070751;28;20064;-85
2023/04/10 03:47:25;;;;;;;9.43;5.47;;;;;;;;;;5087183;28;20043;-86
2023/04/10 03:49:51;;;;;;;10.05;5.60;;;;;;;;;;5089289;28;20769;-86
2023/04/10 03:52:17;;;;;;;9.80;5.50;;;;;;;;;;5075531;28;20029;-86
2023/04/10 03:54:43;;;;;;;8.77;5.43;;;;;;;;;;5076925;28;20032;-86
2023/04/10 03:57:20;;;;;;;11.10;5.72;;;;;;;;;;5075479;28;20058;-85
2023/04/10 03:59:47;;;;;;;9.30;5.68;;;;;;;;;;5071282;28;20032;-88
2023/04/10 04:02:13;;;;;;;9.55;5.93;;;;;;;;;;5074168;28;20040;-87
2023/04/10 04:04:41;;;;;;;10.23;6.43;;;;;;;;;;5092251;28;20028;-86
2023/04/10 04:07:19;;;;;;;9.70;5.97;;;;;;;;;;5075556;28;20059;-85
2023/04/10 04:10:23;;;;;;;12.10;6.00;;;;;;;;;;5055683;28;20036;-85
2023/04/10 04:13:27;;;;;;;8.50;5.30;;;;;;;;;;5037255;28;20089;-85
2023/04/10 04:16:09;;;;;;;9.20;5.30;;;;;;;;;;5034768;28;20545;-83
2023/04/10 04:18:42;;;;;;;8.35;5.30;;;;;;;;;;5043719;28;20652;-86
2023/04/10 04:21:28;;;;;;;9.70;5.68;;;;;;;;;;5075591;28;20044;-86
2023/04/10 04:24:02;;;;;;;10.13;5.60;;;;;;;;;;5074859;28;20123;-86
2023/04/10 04:26:44;;;;;;;10.10;5.28;;;;;;;;;;5069953;28;20036;-84
2023/04/10 04:29:17;;;;;;;9.38;5.78;;;;;;;;;;5073616;28;20085;-83
2023/04/10 04:32:09;;;;;;;16.15;9.25;;;;;;;;;;5073260;28;20048;-78
2023/04/10 04:34:57;;;;;;;9.98;6.35;;;;;;;;;;5072025;28;20044;-85
2023/04/10 04:37:49;;;;;;;9.23;5.82;;;;;;;;;;5063688;28;20128;-87
2023/04/10 04:40:42;;;;;;;10.53;6.50;;;;;;;;;;5057423;28;20043;-86
2023/04/10 04:43:17;;;;;;;11.23;6.40;;;;;;;;;;5069890;28;20067;-84
2023/04/10 04:45:58;;;;;;;9.95;6.13;;;;;;;;;;5071632;28;20159;-86
2023/04/10 04:48:47;;;;;;;11.35;6.25;;;;;;;;;;5038895;28;20128;-86
2023/04/10 04:51:34;;;;;;;10.25;6.60;;;;;;;;;;5051506;28;20425;-85
2023/04/10 04:54:06;;;;;;;12.40;6.45;;;;;;;;;;5068781;28;20039;-85
2023/04/10 04:57:07;;;;;;;12.45;7.50;;;;;;;;;;5076002;28;20052;-85
2023/04/10 04:59:53;;;;;;;14.68;8.02;;;;;;;;;;5073457;28;20035;-85
2023/04/10 05:02:38;;;;;;;13.85;7.45;;;;;;;;;;5060914;28;20428;-85
2023/04/10 05:05:27;;;;;;;15.27;8.18;;;;;;;;;;5075934;28;20505;-84
2023/04/10 05:08:15;;;;;;;10.80;6.78;;;;;;;;;;5064072;28;20044;-83
2023/04/10 05:11:13;;;;;;;10.63;6.38;;;;;;;;;;5051446;28;20379;-85
2023/04/10 05:13:52;;;;;;;10.65;5.80;;;;;;;;;;5071930;28;20028;-85
2023/04/10 05:16:43;;;;;;;10.20;5.57;;;;;;;;;;5064367;28;20040;-85
2023/04/10 05:19:29;;;;;;;9.48;5.65;;;;;;;;;;5064756;28;20055;-85
2023/04/10 05:22:12;;;;;;;8.63;5.50;;;;;;;;;;5076158;28;20036;-84
2023/04/10 05:25:04;;;;;;;8.77;5.03;;;;;;;;;;5072143;28;20048;-86
2023/04/10 05:27:50;;;;;;;9.02;5.53;;;;;;;;;;5076168;28;20044;-86
2023/04/10 05:30:37;;;;;;;9.32;5.72;;;;;;;;;;5069448;28;20088;-84
2023/04/10 05:33:32;;;;;;;10.85;5.65;;;;;;;;;;5035563;28;20034;-85
2023/04/10 05:36:23;;;;;;;9.77;5.90;;;;;;;;;;5069506;28;20116;-84
2023/04/10 05:39:12;;;;;;;9.48;5.70;;;;;;;;;;5069656;28;20033;-85
2023/04/10 05:42:03;;;;;;;10.35;5.80;;;;;;;;;;5065030;28;20033;-85
2023/04/10 05:44:43;;;;;;;8.63;5.32;;;;;;;;;;5070077;28;20036;-85
2023/04/10 05:47:27;;;;;;;8.88;5.55;;;;;;;;;;5071355;28;20521;-85
2023/04/10 05:50:16;;;;;;;10.45;6.00;;;;;;;;;;5068150;28;20052;-85
2023/04/10 05:53:12;;;;;;;12.18;7.28;;;;;;;;;;5069834;28;20033;-84
2023/04/10 05:55:50;;;;;;;9.85;6.25;;;;;;;;;;5069986;28;20040;-85
2023/04/10 05:58:37;;;;;;;9.38;5.90;;;;;;;;;;5071268;28;20071;-84
2023/04/10 06:01:24;;;;;;;8.25;5.55;;;;;;;;;;5069936;28;20432;-84
2023/04/10 06:03:56;;;;;;;11.45;5.88;;;;;;;;;;5069829;28;20036;-85
2023/04/10 06:06:24;;;;;;;12.38;6.10;;;;;;;;;;5030802;28;1096643;-86
2023/04/10 06:08:50;;;;;;;11.68;5.90;;;;;;;;;;5070371;28;20040;-85
2023/04/10 06:11:15;;;;;;;10.45;5.78;;;;;;;;;;5071400;28;20422;-83
2023/04/10 06:13:45;;;;;;;9.15;5.68;;;;;;;;;;5069096;28;20040;-83
2023/04/10 06:16:11;;;;;;;8.40;5.55;;;;;;;;;;5083589;28;20037;-84
2023/04/10 06:18:37;;;;;;;7.68;5.07;;;;;;;;;;5071335;28;20029;-85
2023/04/10 06:21:02;;;;;;;7.10;4.90;;;;;;;;;;5074544;28;20036;-85
2023/04/10 06:23:28;;;;;;;7.32;4.78;;;;;;;;;;5074611;28;20086;-86
2023/04/10 06:25:54;;;;;;;7.18;5.07;;;;;;;;;;5073121;28;20032;-85
2023/04/10 06:28:20;;;;;;;7.80;4.97;;;;;;;;;;5076172;28;20086;-84
2023/04/10 06:30:49;;;;;;;7.45;4.90;;;;;;;;;;5076019;28;20025;-85
2023/04/10 06:33:15;;;;;;;7.35;4.75;;;;;;;;;;5093269;28;20033;-84
2023/04/10 06:35:43;;;;;;;7.03;4.55;;;;;;;;;;5074669;28;20058;-83
2023/04/10 06:38:08;;;;;;;9.05;4.90;;;;;;;;;;5074598;28;20024;-84
2023/04/10 06:40:35;;;;;;;6.93;4.97;;;;;;;;;;5075611;28;20037;-85
2023/04/10 06:43:00;;;;;;;7.93;5.05;;;;;;;;;;5076030;28;20082;-83
2023/04/10 06:45:32;;;;;;;8.18;4.90;;;;;;;;;;5073797;28;20497;-85
2023/04/10 06:47:58;;;;;;;8.43;5.32;;;;;;;;;;5074278;28;20170;-83
2023/04/10 06:50:23;;;;;;;7.38;5.10;;;;;;;;;;5075785;28;20409;-83
2023/04/10 06:52:49;;;;;;;7.93;5.80;;;;;;;;;;5075583;28;20045;-85
2023/04/10 06:55:14;;;;;;;13.98;7.88;;;;;;;;;;5072503;28;20037;-85
2023/04/10 06:57:40;;;;;;;8.60;5.35;;;;;;;;;;5090881;28;20397;-84
2023/04/10 07:00:08;;;;;;;8.77;5.32;;;;;;;;;;5074557;28;20033;-83
2023/04/10 07:02:34;;;;;;;8.45;5.40;;;;;;;;;;5073013;28;20482;-85
2023/04/10 07:04:59;;;;;;;8.18;5.40;;;;;;;;;;5074764;28;20086;-85
2023/04/10 07:07:25;;;;;;;9.18;5.20;;;;;;;;;;5075234;28;20453;-84
2023/04/10 07:09:50;;;;;;;8.43;5.78;;;;;;;;;;5076426;28;20032;-83
2023/04/10 07:12:16;;;;;;;9.02;5.47;;;;;;;;;;5075037;28;20032;-84
2023/04/10 07:14:42;;;;;;;7.28;5.30;;;;;;;;;;5077587;28;20175;-85
2023/04/10 07:17:07;;;;;;;7.65;5.43;;;;;;;;;;5076403;28;20055;-85
2023/04/10 07:19:33;;;;;;;8.73;5.72;;;;;;;;;;5078483;28;20021;-85
2023/04/10 07:21:59;;;;;;;7.72;5.28;;;;;;;;;;5044731;28;20045;-86
2023/04/10 07:24:25;;;;;;;8.55;5.22;;;;;;;;;;5075967;28;20032;-86
2023/04/10 07:26:50;;;;;;;7.78;5.60;;;;;;;;;;5078839;28;20076;-86
2023/04/10 07:29:16;;;;;;;8.25;5.65;;;;;;;;;;5079167;28;20044;-86
2023/04/10 07:31:42;;;;;;;7.70;5.30;;;;;;;;;;5077174;28;20082;-85
2023/04/10 07:34:10;;;;;;;8.13;5.53;;;;;;;;;;5080261;28;20078;-85
2023/04/10 07:36:35;;;;;;;8.80;5.75;;;;;;;;;;5096106;28;20052;-83
2023/04/10 07:39:01;;;;;;;8.23;5.40;;;;;;;;;;5079555;28;20029;-85
2023/04/10 07:41:26;;;;;;;7.05;4.78;;;;;;;;;;5075748;28;20036;-85
2023/04/10 07:43:52;;;;;;;7.68;5.30;;;;;;;;;;5072894;28;20517;-83
2023/04/10 07:46:17;;;;;;;9.82;5.15;;;;;;;;;;5073374;28;20032;-84
2023/04/10 07:48:43;;;;;;;8.30;5.22;;;;;;;;;;5089556;28;20498;-84
2023/04/10 07:51:09;;;;;;;7.30;5.10;;;;;;;;;;5075244;28;20032;-86
2023/04/10 07:53:38;;;;;;;8.25;5.60;;;;;;;;;;5073704;28;20410;-86
2023/04/10 07:56:04;;;;;;;8.93;5.80;;;;;;;;;;5075415;28;20062;-84
2023/04/10 07:58:31;;;;;;;7.85;5.50;;;;;;;;;;5074611;28;20094;-84
2023/04/10 08:01:00;;;;;;;7.35;5.30;;;;;;;;;;5076449;28;20480;-85
2023/04/10 08:03:26;;;;;;;8.23;5.65;;;;;;;;;;5076064;28;20078;-83
2023/04/10 08:05:52;;;;;;;7.25;4.95;;;;;;;;;;5076148;28;20059;-86
2023/04/10 08:08:18;;;;;;;7.50;5.20;;;;;;;;;;5075135;28;20490;-87
2023/04/10 08:10:43;;;;;;;6.40;4.47;;;;;;;;;;5076585;28;20025;-86
2023/04/10 08:13:09;;;;;;;7.43;5.22;;;;;;;;;;5055467;28;20078;-86
2023/04/10 08:15:34;;;;;;;6.80;4.97;;;;;;;;;;5076394;28;20032;-83
2023/04/10 08:18:00;;;;;;;7.38;4.72;;;;;;;;;;5077251;28;20112;-84
2023/04/10 08:20:25;;;;;;;6.50;4.60;;;;;;;;;;5075578;28;20034;-86
2023/04/10 08:22:51;;;;;;;6.80;4.80;;;;;;;;;;5076652;28;20032;-86
2023/04/10 08:25:16;;;;;;;7.95;4.50;;;;;;;;;;5077166;28;20036;-86
2023/04/10 08:27:42;;;;;;;11.88;8.05;;;;;;;;;;5077281;28;20029;-84
2023/04/10 08:30:07;;;;;;;5.88;4.45;;;;;;;;;;5077720;28;20426;-86
2023/04/10 08:32:33;;;;;;;5.47;4.18;;;;;;;;;;5077121;28;20051;-86
2023/04/10 08:34:58;;;;;;;6.32;4.55;;;;;;;;;;5092804;28;20057;-88
2023/04/10 08:37:25;;;;;;;6.55;4.18;;;;;;;;;;5078821;28;20036;-87
2023/04/10 08:39:54;;;;;;;7.10;4.50;;;;;;;;;;5078787;28;20037;-86
2023/04/10 08:42:19;;;;;;;5.50;4.07;;;;;;;;;;5078451;28;20511;-84
2023/04/10 08:44:48;;;;;;;6.47;4.43;;;;;;;;;;5073061;28;20115;-83
2023/04/10 08:47:14;;;;;;;7.13;4.25;;;;;;;;;;5075004;28;20040;-83
2023/04/10 08:49:46;;;;;;;5.45;3.90;;;;;;;;;;5071281;28;20136;-85
2023/04/10 08:52:23;;;;;;;6.80;4.72;;;;;;;;;;5072620;28;20032;-85
2023/04/10 08:54:57;;;;;;;5.57;4.10;;;;;;;;;;5074246;28;20115;-87
2023/04/10 08:57:23;;;;;;;;;;;;;;;;;;5073329;28;20036;-84
2023/04/10 08:59:50;;;;;;;7.70;4.80;;;;;;;;;;5072400;28;19935;-83
2023/04/10 09:02:16;;;;;;;6.63;4.20;;;;;;;;;;5089315;28;20119;-83
2023/04/10 09:04:50;;;;;;;5.22;3.72;;;;;;;;;;5074155;28;20021;-86
2023/04/10 09:07:17;;;;;;;4.82;3.80;;;;;;;;;;5073942;28;20035;-83
2023/04/10 09:09:43;;;;;;;6.55;4.70;;;;;;;;;;5074910;28;20032;-85
2023/04/10 09:12:09;;;;;;;7.40;5.18;;;;;;;;;;5074072;28;20039;-86
2023/04/10 09:14:36;;;;;;;6.40;4.70;;;;;;;;;;5073302;28;20048;-85
2023/04/10 09:17:12;;;;;;;6.88;4.43;;;;;;;;;;5072878;28;20037;-87
2023/04/10 09:19:37;;;;;;;6.45;4.65;;;;;;;;;;5075173;28;20025;-86
2023/04/10 09:22:04;;;;;;;6.93;5.10;;;;;;;;;;5074196;28;20498;-85
2023/04/10 09:24:29;;;;;;;6.38;4.60;;;;;;;;;;5073770;28;20053;-86
2023/04/10 09:26:55;;;;;;;6.35;4.63;;;;;;;;;;5075627;28;20029;-85
2023/04/10 09:29:20;;;;;;;7.22;4.93;;;;;;;;;;5075717;28;20151;-84
2023/04/10 09:31:46;;;;;;;7.20;4.80;;;;;;;;;;5088080;28;20479;-84
2023/04/10 09:34:14;;;;;;;6.03;4.50;;;;;;;;;;5076198;28;20040;-85
2023/04/10 09:36:41;;;;;;;7.13;5.10;;;;;;;;;;5075362;28;20177;-87
2023/04/10 09:39:07;;;;;;;7.28;5.40;;;;;;;;;;5076026;28;20110;-85
2023/04/10 09:41:33;;;;;;;7.22;5.10;;;;;;;;;;5075449;28;20036;-84
2023/04/10 09:44:06;;;;;;;7.03;5.15;;;;;;;;;;5096658;28;20074;-84
2023/04/10 09:46:32;;;;;;;7.45;4.97;;;;;;;;;;5072111;28;20040;-83
2023/04/10 09:49:03;;;;;;;6.80;5.20;;;;;;;;;;5074655;28;20028;-84
2023/04/10 09:51:34;;;;;;;8.60;4.95;;;;;;;;;;5073933;28;20094;-85
2023/04/10 09:54:01;;;;;;;7.07;5.20;;;;;;;;;;5069486;28;20036;-83
2023/04/10 09:56:28;;;;;;;7.07;5.30;;;;;;;;;;5074361;28;20052;-86
2023/04/10 09:58:58;;;;;;;8.57;5.28;;;;;;;;;;5072316;28;20033;-82
2023/04/10 10:01:27;;;;;;;6.28;4.78;;;;;;;;;;5073205;28;20040;-82
2023/04/10 10:03:54;;;;;;;7.93;5.07;;;;;;;;;;5072904;28;20043;-85
2023/04/10 10:06:21;;;;;;;7.15;5.30;;;;;;;;;;5072634;28;20037;-87
2023/04/10 10:08:47;;;;;;;7.32;4.97;;;;;;;;;;5073691;28;20040;-85
2023/04/10 10:11:14;;;;;;;7.45;5.30;;;;;;;;;;5076335;28;20028;-84
2023/04/10 10:13:53;;;;;;;6.18;4.82;;;;;;;;;;5079703;28;20070;-85
2023/04/10 10:16:34;;;;;;;6.97;4.80;;;;;;;;;;5078549;28;20032;-85
2023/04/10 10:19:05;;;;;;;5.55;4.13;;;;;;;;;;5079712;28;20021;-86
2023/04/10 10:21:33;;;;;;;6.35;4.57;;;;;;;;;;5078956;28;20079;-84
2023/04/10 10:24:00;;;;;;;5.70;4.40;;;;;;;;;;5079396;28;20040;-86
2023/04/10 10:26:28;;;;;;;5.85;4.22;;;;;;;;;;5079882;28;20405;-86
2023/04/10 10:28:55;;;;;;;4.90;3.85;;;;;;;;;;5078377;28;20482;-85
2023/04/10 10:31:22;;;;;;;5.30;4.18;;;;;;;;;;5080182;28;20040;-83
2023/04/10 10:33:51;;;;;;;5.45;4.05;;;;;;;;;;5078163;28;20067;-86
2023/04/10 10:36:18;;;;;;;5.70;4.25;;;;;;;;;;5076511;28;20041;-85
2023/04/10 10:38:53;;;;;;;6.18;4.55;;;;;;;;;;5080493;28;20031;-85
2023/04/10 10:41:34;;;;;;;5.57;4.07;;;;;;;;;;5078245;28;20117;-83
2023/04/10 10:44:20;;;;;;;5.88;4.15;;;;;;;;;;5049442;28;20421;-85
2023/04/10 10:46:48;;;;;;;5.13;4.10;;;;;;;;;;5085135;28;20371;-85
2023/04/10 10:49:14;;;;;;;5.43;3.88;;;;;;;;;;5060732;28;20044;-83
2023/04/10 10:51:48;;;;;;;5.50;3.72;;;;;;;;;;5077384;28;20046;-84
2023/04/10 10:54:31;;;;;;;4.65;3.70;;;;;;;;;;5077509;28;20029;-87
2023/04/10 10:56:57;;;;;;;5.40;3.83;;;;;;;;;;5075939;28;20040;-86
2023/04/10 10:59:42;;;;;;;5.05;3.90;;;;;;;;;;5080616;28;20028;-82
2023/04/10 11:02:14;;;;;;;5.03;3.90;;;;;;;;;;5075467;28;20054;-85
2023/04/10 11:04:44;;;;;;;5.60;3.60;;;;;;;;;;5077360;28;20037;-87
2023/04/10 11:07:10;;;;;;;4.85;3.78;;;;;;;;;;5076826;28;20286;-84
2023/04/10 11:09:51;;;;;;;4.80;3.58;;;;;;;;;;5076190;28;20367;-83
2023/04/10 11:12:26;;;;;;;4.32;3.20;;;;;;;;;;5077504;28;20042;-85
2023/04/10 11:15:03;;;;;;;4.75;3.50;;;;;;;;;;5076412;28;20043;-83
2023/04/10 11:17:48;;;;;;;4.85;3.47;;;;;;;;;;5077666;28;20063;-87
2023/04/10 11:20:14;;;;;;;5.40;3.60;;;;;;;;;;5076355;28;20037;-85
2023/04/10 11:23:04;;;;;;;4.97;3.60;;;;;;;;;;5078202;28;20064;-86
2023/04/10 11:25:51;;;;;;;4.70;3.33;;;;;;;;;;5078700;28;20520;-84
2023/04/10 11:28:36;;;;;;;5.85;3.60;;;;;;;;;;5078297;28;20039;-83
2023/04/10 11:31:20;;;;;;;5.10;3.38;;;;;;;;;;5078164;28;20032;-84
2023/04/10 11:34:00;;;;;;;5.10;3.47;;;;;;;;;;5077562;28;20104;-87
2023/04/10 11:36:26;;;;;;;6.18;3.25;;;;;;;;;;5076267;28;20029;-86
2023/04/10 11:39:12;;;;;;;4.68;3.58;;;;;;;;;;5078131;28;20375;-85
2023/04/10 11:41:42;;;;;;;5.32;3.70;;;;;;;;;;5077993;28;20101;-85
2023/04/10 11:44:30;;;;;;;4.97;3.33;;;;;;;;;;5078071;28;20451;-86
2023/04/10 11:46:56;;;;;;;4.70;3.40;;;;;;;;;;5079379;28;20056;-84
2023/04/10 11:49:29;;;;;;;6.38;3.17;;;;;;;;;;5081987;28;20063;-85
2023/04/10 11:51:54;;;;;;;4.22;3.10;;;;;;;;;;5072639;28;20496;-85
2023/04/10 11:54:25;;;;;;;4.53;3.28;;;;;;;;;;5073350;28;20044;-84
2023/04/10 11:57:05;;;;;;;5.68;3.60;;;;;;;;;;5072052;28;20040;-85
2023/04/10 11:59:32;;;;;;;4.03;3.20;;;;;;;;;;5073057;28;20032;-84
2023/04/10 12:02:14;;;;;;;3.80;2.90;;;;;;;;;;5076422;28;20039;-85
2023/04/10 12:04:42;;;;;;;4.22;3.08;;;;;;;;;;5074074;28;20036;-85
2023/04/10 12:07:08;;;;;;;4.35;3.40;;;;;;;;;;5076079;28;20063;-85
2023/04/10 12:09:34;;;;;;;3.78;2.90;;;;;;;;;;5074717;28;20032;-85
2023/04/10 12:12:04;;;;;;;4.35;3.10;;;;;;;;;;5076082;28;20032;-85
2023/04/10 12:14:35;;;;;;;5.28;3.35;;;;;;;;;;5070470;28;20029;-84
2023/04/10 12:17:02;;;;;;;4.05;3.22;;;;;;;;;;5075087;28;20120;-84
2023/04/10 12:19:27;;;;;;;4.35;3.17;;;;;;;;;;5076051;28;20089;-84
2023/04/10 12:21:54;;;;;;;5.07;3.30;;;;;;;;;;5076168;28;20036;-85
2023/04/10 12:24:39;;;;;;;5.22;3.40;;;;;;;;;;5076073;28;20512;-85
2023/04/10 12:27:05;;;;;;;4.45;3.30;;;;;;;;;;5076678;28;20078;-87
2023/04/10 12:29:30;;;;;;;4.70;3.20;;;;;;;;;;5076812;28;20024;-85
2023/04/10 12:31:56;;;;;;;5.35;3.15;;;;;;;;;;5077292;28;20037;-87
2023/04/10 12:34:21;;;;;;;5.25;2.97;;;;;;;;;;5090801;28;20044;-86
2023/04/10 12:36:52;;;;;;;4.20;3.20;;;;;;;;;;5092741;28;20033;-85
2023/04/10 12:39:23;;;;;;;3.58;2.95;;;;;;;;;;5092665;28;20032;-86
2023/04/10 12:41:48;;;;;;;4.55;3.35;;;;;;;;;;5076795;28;20066;-84
2023/04/10 12:44:14;;;;;;;4.03;2.83;;;;;;;;;;5078169;28;20032;-85
2023/04/10 12:46:40;;;;;;;4.03;3.13;;;;;;;;;;5078637;28;20040;-86
2023/04/10 12:49:17;;;;;;;3.63;2.80;;;;;;;;;;5076944;28;20028;-86
2023/04/10 12:51:50;;;;;;;3.38;2.85;;;;;;;;;;5079584;28;20032;-85
2023/04/10 12:54:33;;;;;;;5.60;3.17;;;;;;;;;;5074968;28;20028;-86
2023/04/10 12:56:59;;;;;;;3.83;2.80;;;;;;;;;;5074412;28;20047;-84
2023/04/10 12:59:28;;;;;;;3.75;3.00;;;;;;;;;;5070681;28;20062;-86
2023/04/10 13:01:54;;;;;;;4.07;3.05;;;;;;;;;;5073199;28;20117;-84
2023/04/10 13:04:20;;;;;;;4.20;2.95;;;;;;;;;;5073561;28;20107;-87
2023/04/10 13:06:47;;;;;;;3.95;3.08;;;;;;;;;;5071576;28;20174;-86
2023/04/10 13:09:14;;;;;;;5.85;3.30;;;;;;;;;;5069292;28;20429;-85
2023/04/10 13:11:41;;;;;;;4.47;3.30;;;;;;;;;;5074414;28;20047;-84
2023/04/10 13:14:07;;;;;;;4.65;3.22;;;;;;;;;;5074646;28;20036;-85
2023/04/10 13:16:33;;;;;;;5.07;3.05;;;;;;;;;;5075431;28;20036;-85
2023/04/10 13:18:59;;;;;;;3.95;2.90;;;;;;;;;;5073934;28;20081;-84
2023/04/10 13:21:27;;;;;;;4.72;3.17;;;;;;;;;;5074280;28;20169;-84
2023/04/10 13:23:56;;;;;;;4.32;3.03;;;;;;;;;;5073711;28;20056;-83
2023/04/10 13:26:22;;;;;;;4.50;3.20;;;;;;;;;;5072249;28;20425;-86
2023/04/10 13:28:48;;;;;;;4.25;3.00;;;;;;;;;;5074294;28;20488;-84
2023/04/10 13:31:16;;;;;;;3.78;2.97;;;;;;;;;;5090056;28;20518;-85
2023/04/10 13:33:46;;;;;;;4.03;2.75;;;;;;;;;;5071148;28;20039;-85
2023/04/10 13:36:13;;;;;;;4.38;3.17;;;;;;;;;;5090275;28;20032;-83
2023/04/10 13:38:38;;;;;;;4.30;3.05;;;;;;;;;;5073115;28;20020;-84
2023/04/10 13:41:04;;;;;;;4.15;3.10;;;;;;;;;;5075795;28;20048;-86
2023/04/10 13:43:29;;;;;;;3.75;2.97;;;;;;;;;;5070998;28;20432;-86
2023/04/10 13:45:55;;;;;;;3.58;2.92;;;;;;;;;;5075720;28;20042;-87
2023/04/10 13:48:20;;;;;;;4.25;3.17;;;;;;;;;;5075703;28;20536;-86
2023/04/10 13:50:46;;;;;;;4.45;3.05;;;;;;;;;;5081163;28;20211;-82
2023/04/10 13:53:11;;;;;;;5.25;3.13;;;;;;;;;;5076883;28;20076;-85
2023/04/10 13:55:37;;;;;;;4.20;3.17;;;;;;;;;;5089726;28;20063;-85
2023/04/10 13:58:03;;;;;;;4.70;3.00;;;;;;;;;;5074012;28;20036;-85
2023/04/10 14:00:28;;;;;;;4.18;3.13;;;;;;;;;;5073618;28;20033;-86
2023/04/10 14:02:54;;;;;;;4.43;3.38;;;;;;;;;;5072777;28;20283;-85
2023/04/10 14:05:20;;;;;;;4.57;3.20;;;;;;;;;;5072049;28;20410;-85
2023/04/10 14:07:45;;;;;;;4.00;3.20;;;;;;;;;;5073580;28;20043;-84
2023/04/10 14:10:11;;;;;;;4.53;3.17;;;;;;;;;;5071531;28;20044;-84
2023/04/10 14:12:36;;;;;;;3.65;2.92;;;;;;;;;;5072562;28;20052;-85
2023/04/10 14:15:02;;;;;;;4.38;3.05;;;;;;;;;;5074072;28;20036;-85
2023/04/10 14:17:27;;;;;;;4.10;3.00;;;;;;;;;;5071191;28;20091;-86
2023/04/10 14:19:52;;;;;;;4.15;2.88;;;;;;;;;;5075168;28;20089;-84
2023/04/10 14:22:19;;;;;;;3.75;2.80;;;;;;;;;;5072816;28;20124;-84
2023/04/10 14:24:45;;;;;;;4.00;3.05;;;;;;;;;;5076121;28;20040;-84
2023/04/10 14:27:10;;;;;;;3.55;2.95;;;;;;;;;;5075845;28;20040;-86
2023/04/10 14:29:36;;;;;;;4.47;3.10;;;;;;;;;;5073865;28;20033;-83
2023/04/10 14:32:01;;;;;;;3.80;2.90;;;;;;;;;;5075997;28;20078;-86
2023/04/10 14:34:27;;;;;;;3.65;2.70;;;;;;;;;;5073847;28;20039;-85
2023/04/10 14:36:54;;;;;;;3.60;2.80;;;;;;;;;;5075064;28;20028;-85
2023/04/10 14:39:24;;;;;;;3.97;2.90;;;;;;;;;;5075724;28;20046;-86
2023/04/10 14:41:50;;;;;;;3.40;2.53;;;;;;;;;;5078055;28;20057;-86
2023/04/10 14:44:16;;;;;;;4.03;2.70;;;;;;;;;;5075884;28;20490;-85
2023/04/10 14:46:42;;;;;;;4.47;2.90;;;;;;;;;;5078318;28;20044;-88
2023/04/10 14:49:07;;;;;;;5.57;3.15;;;;;;;;;;5078207;28;20097;-86
2023/04/10 14:51:33;;;;;;;3.67;2.80;;;;;;;;;;5078822;28;20214;-85
2023/04/10 14:53:58;;;;;;;4.00;2.88;;;;;;;;;;5073078;28;20127;-84
2023/04/10 14:56:24;;;;;;;4.03;3.10;;;;;;;;;;5073084;28;20029;-85
2023/04/10 14:58:49;;;;;;;3.80;2.90;;;;;;;;;;5076003;28;20482;-84
2023/04/10 15:01:16;;;;;;;4.65;3.10;;;;;;;;;;5076491;28;20112;-82